createdAt,value
2022-10-12T00:03:35.447Z,67.70
2022-10-12T00:08:42.415Z,67.50
2022-10-12T00:13:46.646Z,67.40
2022-10-12T00:18:52.493Z,67.40
2022-10-12T00:24:00.572Z,67.50
2022-10-12T00:29:05.469Z,67.50
2022-10-12T00:34:09.151Z,67.80
2022-10-12T00:39:13.967Z,67.60
2022-10-12T00:44:42.026Z,67.40
2022-10-12T00:49:49.878Z,67.60
2022-10-12T00:54:55.936Z,67.60
2022-10-12T01:00:06.787Z,68.40
2022-10-12T01:05:12.112Z,67.70
2022-10-12T01:10:17.897Z,67.70
2022-10-12T01:15:21.622Z,67.80
2022-10-12T01:20:52.038Z,67.90
2022-10-12T01:26:30.336Z,67.90
2022-10-12T01:31:42.430Z,67.80
2022-10-12T01:36:52.940Z,68.00
2022-10-12T01:42:01.997Z,68.00
2022-10-12T01:47:06.996Z,68.00
2022-10-12T01:52:29.063Z,68.30
2022-10-12T01:57:48.696Z,68.30
2022-10-12T02:03:03.580Z,68.30
2022-10-12T02:08:17.371Z,68.60
2022-10-12T02:13:23.930Z,68.20
2022-10-12T02:18:31.031Z,68.80
2022-10-12T02:23:36.395Z,68.40
2022-10-12T02:28:41.291Z,68.70
2022-10-12T02:33:58.639Z,68.30
2022-10-12T02:39:08.694Z,67.40
2022-10-12T02:44:21.189Z,67.10
2022-10-12T02:49:29.024Z,66.70
2022-10-12T02:54:32.895Z,66.50
2022-10-12T02:59:37.052Z,66.40
2022-10-12T03:04:42.943Z,65.90
2022-10-12T03:09:46.564Z,65.40
2022-10-12T03:14:50.032Z,65.70
2022-10-12T03:19:54.913Z,65.50
2022-10-12T03:25:00.222Z,65.70
2022-10-12T03:30:03.725Z,65.40
2022-10-12T03:35:10.530Z,64.90
2022-10-12T03:40:15.069Z,65.60
2022-10-12T03:45:18.920Z,66.10
2022-10-12T03:50:24.677Z,65.50
2022-10-12T03:55:28.413Z,66.20
2022-10-12T04:00:32.212Z,65.00
2022-10-12T04:05:37.394Z,65.80
2022-10-12T04:10:41.119Z,65.40
2022-10-12T04:15:44.896Z,65.70
2022-10-12T04:20:51.023Z,65.80
2022-10-12T04:25:54.600Z,65.80
2022-10-12T04:30:58.374Z,66.00
2022-10-12T04:36:03.332Z,66.60
2022-10-12T04:41:07.265Z,66.40
2022-10-12T04:46:11.446Z,67.30
2022-10-12T04:51:16.331Z,66.60
2022-10-12T04:56:20.728Z,66.60
2022-10-12T05:01:24.531Z,67.10
2022-10-12T05:06:29.553Z,67.20
2022-10-12T05:11:33.143Z,67.20
2022-10-12T05:16:36.701Z,67.40
2022-10-12T05:21:42.433Z,67.30
2022-10-12T05:26:46.096Z,67.50
2022-10-12T05:31:49.585Z,67.50
2022-10-12T05:36:54.707Z,67.30
2022-10-12T05:41:58.848Z,67.40
2022-10-12T05:47:02.608Z,67.60
2022-10-12T05:52:07.752Z,67.70
2022-10-12T05:57:13.144Z,68.00
2022-10-12T06:02:19.361Z,68.10
2022-10-12T06:07:24.624Z,68.20
2022-10-12T06:12:31.362Z,68.30
2022-10-12T06:17:35.015Z,68.50
2022-10-12T06:22:40.582Z,68.50
2022-10-12T06:27:47.004Z,68.70
2022-10-12T06:32:50.678Z,68.50
2022-10-12T06:37:55.568Z,67.90
2022-10-12T06:43:02.659Z,66.20
2022-10-12T06:48:07.216Z,63.80
2022-10-12T06:53:12.249Z,62.60
2022-10-12T06:58:15.902Z,61.40
2022-10-12T07:03:20.351Z,60.50
2022-10-12T07:08:25.571Z,59.50
2022-10-12T07:13:29.285Z,59.00
2022-10-12T07:18:33.567Z,58.50
2022-10-12T07:23:43.630Z,58.00
2022-10-12T07:28:49.296Z,57.90
2022-10-12T07:33:52.772Z,58.00
2022-10-12T07:38:57.687Z,58.10
2022-10-12T07:44:01.154Z,58.50
2022-10-12T07:49:05.258Z,58.40
2022-10-12T07:54:10.618Z,58.40
2022-10-12T07:59:15.116Z,58.50
2022-10-12T08:04:18.649Z,58.60
2022-10-12T08:09:23.510Z,58.70
2022-10-12T08:14:27.354Z,58.70
2022-10-12T08:19:35.191Z,58.90
2022-10-12T08:24:40.615Z,59.10
2022-10-12T08:29:44.215Z,59.20
2022-10-12T08:34:47.928Z,59.20
2022-10-12T08:39:53.081Z,59.20
2022-10-12T08:45:34.670Z,59.70
2022-10-12T08:50:47.480Z,59.80
2022-10-12T08:55:53.324Z,60.20
2022-10-12T09:01:09.724Z,60.60
2022-10-12T09:06:21.213Z,61.20
2022-10-12T09:11:51.482Z,61.50
2022-10-12T09:16:57.239Z,62.00
2022-10-12T09:22:01.920Z,62.10
2022-10-12T09:27:17.097Z,62.40
2022-10-12T09:32:45.225Z,62.60
2022-10-12T09:37:53.315Z,62.90
2022-10-12T09:43:02.945Z,63.10
2022-10-12T09:48:20.503Z,63.30
2022-10-12T09:53:29.287Z,63.40
2022-10-12T09:58:44.404Z,64.40
2022-10-12T10:03:52.749Z,63.80
2022-10-12T10:08:56.678Z,63.90
2022-10-12T10:14:03.303Z,64.10
2022-10-12T10:19:06.815Z,64.20
2022-10-12T10:24:29.200Z,64.30
2022-10-12T10:29:39.174Z,64.40
2022-10-12T10:34:43.972Z,66.10
2022-10-12T10:39:51.109Z,67.40
2022-10-12T10:45:02.380Z,67.50
2022-10-12T10:50:25.696Z,67.60
2022-10-12T10:55:46.470Z,67.40
2022-10-12T11:00:56.915Z,67.50
2022-10-12T11:06:16.699Z,67.40
2022-10-12T11:11:25.024Z,67.30
2022-10-12T11:16:38.035Z,67.40
2022-10-12T11:21:50.036Z,67.20
2022-10-12T11:26:59.121Z,67.40
2022-10-12T11:32:09.314Z,67.70
2022-10-12T11:37:21.946Z,67.60
2022-10-12T11:42:34.071Z,67.50
2022-10-12T11:47:47.208Z,67.40
2022-10-12T11:52:54.243Z,67.40
2022-10-12T11:58:13.226Z,67.40
2022-10-12T12:03:30.773Z,67.30
2022-10-12T12:08:59.335Z,67.20
2022-10-12T12:14:44.557Z,67.20
2022-10-12T12:19:50.560Z,67.30
2022-10-12T12:25:18.152Z,67.20
2022-10-12T12:30:36.978Z,67.10
2022-10-12T12:35:55.972Z,67.20
2022-10-12T12:41:09.391Z,67.10
2022-10-12T12:46:15.663Z,67.20
2022-10-12T12:51:23.874Z,67.20
2022-10-12T12:56:42.592Z,67.20
2022-10-12T13:02:16.674Z,67.20
2022-10-12T13:08:04.934Z,67.20
2022-10-12T13:13:44.094Z,67.20
2022-10-12T13:18:59.997Z,67.20
2022-10-12T13:24:16.863Z,67.30
2022-10-12T13:29:30.441Z,67.40
2022-10-12T13:34:42.457Z,68.50
2022-10-12T13:39:47.627Z,68.90
2022-10-12T13:44:51.463Z,69.30
2022-10-12T13:49:56.621Z,69.10
2022-10-12T13:55:02.734Z,69.00
2022-10-12T14:00:20.836Z,68.90
2022-10-12T14:05:28.095Z,68.80
2022-10-12T14:10:38.004Z,68.60
2022-10-12T14:15:43.039Z,68.50
2022-10-12T14:20:46.838Z,68.50
2022-10-12T14:25:55.913Z,68.50
2022-10-12T14:31:00.051Z,68.40
2022-10-12T14:36:33.442Z,68.50
2022-10-12T14:41:50.819Z,68.50
2022-10-12T14:46:57.082Z,68.50
2022-10-12T14:52:01.918Z,69.40
2022-10-12T14:57:16.505Z,69.20
2022-10-12T15:02:24.600Z,69.70
2022-10-12T15:07:33.837Z,69.40
2022-10-12T15:12:39.006Z,69.10
2022-10-12T15:17:42.587Z,68.80
2022-10-12T15:22:46.785Z,68.80
2022-10-12T15:27:52.015Z,68.70
2022-10-12T15:32:55.521Z,68.60
2022-10-12T15:37:59.007Z,68.70
2022-10-12T15:43:03.898Z,68.30
2022-10-12T15:48:10.202Z,68.00
2022-10-12T15:53:17.515Z,68.10
2022-10-12T15:58:23.224Z,68.60
2022-10-12T16:03:31.204Z,68.90
2022-10-12T16:08:35.119Z,68.90
2022-10-12T16:13:46.375Z,69.00
2022-10-12T16:18:54.556Z,69.80
2022-10-12T16:23:58.183Z,69.90
2022-10-12T16:29:03.207Z,69.80
2022-10-12T16:34:06.823Z,69.80
2022-10-12T16:39:10.937Z,69.70
2022-10-12T16:44:15.962Z,69.70
2022-10-12T16:49:19.641Z,70.00
2022-10-12T16:54:25.681Z,70.30
2022-10-12T16:59:31.182Z,70.20
2022-10-12T17:04:35.062Z,70.20
2022-10-12T17:09:38.656Z,70.20
2022-10-12T17:14:43.692Z,70.10
2022-10-12T17:19:48.332Z,70.10
2022-10-12T17:24:52.062Z,70.00
2022-10-12T17:29:59.575Z,70.00
2022-10-12T17:35:03.167Z,70.00
2022-10-12T17:40:10.770Z,70.00
2022-10-12T17:45:16.020Z,70.00
2022-10-12T17:50:19.914Z,70.00
2022-10-12T17:55:43.904Z,70.00
2022-10-12T18:00:49.067Z,70.00
2022-10-12T18:05:52.944Z,70.10
2022-10-12T18:10:59.883Z,70.20
2022-10-12T18:16:09.943Z,70.30
2022-10-12T18:21:15.118Z,70.30
2022-10-12T18:26:21.957Z,69.80
2022-10-12T18:31:29.220Z,69.30
2022-10-12T18:36:32.884Z,69.00
2022-10-12T18:41:36.885Z,68.70
2022-10-12T18:46:41.969Z,68.50
2022-10-12T18:51:48.655Z,68.50
2022-10-12T18:56:52.387Z,68.30
2022-10-12T19:01:57.664Z,68.20
2022-10-12T19:07:01.782Z,68.20
2022-10-12T19:17:24.785Z,68.40
2022-10-12T19:22:28.641Z,68.60
2022-10-12T19:27:32.206Z,68.80
2022-10-12T19:32:37.238Z,68.80
2022-10-12T19:37:40.700Z,68.80
2022-10-12T19:42:44.368Z,68.80
2022-10-12T19:47:49.397Z,69.00
2022-10-12T19:52:52.864Z,69.30
2022-10-12T19:57:56.360Z,69.30
2022-10-12T20:03:01.267Z,69.30
2022-10-12T20:08:04.941Z,69.30
2022-10-12T20:13:08.409Z,69.40
2022-10-12T20:18:13.696Z,69.50
2022-10-12T20:23:18.373Z,69.50
2022-10-12T20:28:23.340Z,69.70
2022-10-12T20:33:29.063Z,69.90
2022-10-12T20:38:32.659Z,69.90
2022-10-12T20:43:39.650Z,69.60
2022-10-12T20:48:45.910Z,69.20
2022-10-12T20:53:50.966Z,69.30
2022-10-12T20:58:56.441Z,71.40
2022-10-12T21:04:01.522Z,72.10
2022-10-12T21:09:07.189Z,72.30
2022-10-12T21:14:13.271Z,72.50
2022-10-12T21:19:18.850Z,72.30
2022-10-12T21:24:22.374Z,72.40
2022-10-12T21:29:26.561Z,72.40
2022-10-12T21:34:31.450Z,72.50
2022-10-12T21:39:35.052Z,72.50
2022-10-12T21:44:38.854Z,72.60
2022-10-12T21:49:43.924Z,72.60
2022-10-12T21:54:47.856Z,72.50
2022-10-12T21:59:51.566Z,72.50
2022-10-12T22:04:57.017Z,72.50
2022-10-12T22:10:00.527Z,72.40
2022-10-12T22:15:04.735Z,72.30
2022-10-12T22:20:12.208Z,72.50
2022-10-12T22:25:19.003Z,72.30
2022-10-12T22:30:22.635Z,72.40
2022-10-12T22:35:27.721Z,72.20
2022-10-12T22:40:31.207Z,72.10
2022-10-12T22:45:34.740Z,72.20
2022-10-12T22:50:40.118Z,72.30
2022-10-12T22:55:45.545Z,72.30
2022-10-12T23:00:49.302Z,72.30
2022-10-12T23:05:54.511Z,72.50
2022-10-12T23:11:05.938Z,72.70
2022-10-12T23:16:15.252Z,72.60
2022-10-12T23:21:20.278Z,72.70
2022-10-12T23:26:26.839Z,72.90
2022-10-12T23:31:33.552Z,73.00
2022-10-12T23:36:38.823Z,72.90
2022-10-12T23:41:42.439Z,73.00
2022-10-12T23:46:46.254Z,73.10
2022-10-12T23:51:51.311Z,73.20
2022-10-12T23:56:54.903Z,73.20
